Main page
METAR-TAF:

METAR-TAF

Airports :

Pelotas International Airport

Pelotas, Rio Grande do Sul, Brazil

latitude: 31-52S, longitude: 052-21W, elevation: 13 m

Current weather observation

The report was made 11 minutes ago, at 14:00 UTC
Wind 11 kt from the East
Temperature 28°C
Humidity 74%
Pressure 1010 hPa
Visibility 10 km or more
Broken clouds at a height of 2300 ft
Overcast at a height of 3200 ft

METAR: SBPK 211400Z 09011KT 9999 BKN023 OVC032 28/23 Q1010

Time: 11:11 (14:11 UTC)

Forecast

The report was made 4 hours and 41 minutes ago, at 09:30 UTC
Forecast valid from 21 at 12 UTC to 22 at 12 UTC
Wind 9 kt from the East
Visibility 10 km or more
Scattered clouds at a height of 3000 ft

TAF: SBPK 210930Z 2112/2212 09009KT 9999 SCT030 TX32/2118Z TN23/2208Z RMK PER

Weather observations and forecasts of more than 4000 airports (METAR and TAF reports).

The available stations are represented by yellow and red dots on the map.

Hover mouse over dot to see the name of the station.

Then click to see weather observations and forecasts.

To change the map : click on the green buttons with a black cross to zoom in, on the green button with a dash to zoom out, or on the green arrows for adjacent maps.


METAR-TAF: